Flight Track Log - Related Links

Times and Time Zones

All times are in EDT time to prevent confusion due to time zone crossing. See the SKW5519 flight status page for this flight to view local times or setup timezone preferences in your user account.

Time Position Orientation Groundspeed Altitude Reporting Facility
EDT Latitude Longitude Course Direction KTS MPH feet Rate Location/Type
Thu 05:01:46 PM 39.9333 -104.6833 343° North 216 249 7,000  Level Denver TRACON
Thu 05:02:40 PM 40.0000 -104.6667 11° North 291 335 8,100 1,526 Climbing Denver TRACON
Thu 05:03:40 PM 40.0833 -104.6667 360° North 321 369 9,900 1,733 Climbing Denver TRACON
Thu 05:04:10 PM 40.1303 -104.6775 350° North 325 374 10,700 1,826 Climbing Denver Center
Thu 05:05:12 PM 40.2142 -104.7425 329° Northwest 323 372 12,700 1,645 Climbing Denver Center
Thu 05:06:14 PM 40.2842 -104.8303 316° Northwest 345 397 14,100 1,403 Climbing Denver Center
Thu 05:07:00 PM 40.3762 -105.2613 343° North  Level Estimated
Thu 05:07:16 PM 40.3489 -104.9303 310° West 361 415 15,600  Level Denver Center
Thu 05:08:18 PM 40.4394 -105.0197 323° Northwest 378 435 17,300 1,548 Climbing Denver Center
Thu 05:09:20 PM 40.5408 -105.0547 345° North 391 450 18,800 1,258 Climbing Denver Center
Thu 05:10:22 PM 40.6614 -105.0350 North 403 464 19,900 1,016 Climbing Denver Center
Thu 05:11:24 PM 40.7706 -105.0381 359° North 410 472 20,900 960 Climbing Denver Center
Thu 05:12:27 PM 40.8486 -105.1356 317° Northwest 395 455 21,900 1,056 Climbing Denver Center
Thu 05:13:29 PM 40.9411 -105.2175 326° Northwest 409 471 23,100 1,065 Climbing Denver Center
Thu 05:14:31 PM 41.0447 -105.2975 330° Northwest 411 473 24,100 774 Climbing Denver Center
Thu 05:15:33 PM 41.1550 -105.3886 328° Northwest 415 478 24,700 629 Climbing Denver Center
Thu 05:16:35 PM 41.2564 -105.4700 329° Northwest 436 502 25,400 726 Climbing Denver Center
Thu 05:17:37 PM 41.3839 -105.5422 337° Northwest 446 513 26,200 871 Climbing Denver Center
Thu 05:18:39 PM 41.4939 -105.6069 336° Northwest 448 516 27,200 823 Climbing Denver Center
Thu 05:19:41 PM 41.6183 -105.6803 336° Northwest 441 507 27,900 629 Climbing Denver Center
Thu 05:20:43 PM 41.7111 -105.7683 325° Northwest 433 498 28,500 629 Climbing Denver Center
Thu 05:21:45 PM 41.8044 -105.8994 314° West 431 496 29,200 532 Climbing Denver Center
Thu 05:22:47 PM 41.8839 -106.0114 314° West 432 497 29,600 387 Climbing Denver Center
Thu 05:23:49 PM 41.9783 -106.1442 314° West 436 502 30,000 532 Climbing Denver Center
Thu 05:24:51 PM 42.0594 -106.2567 314° West 436 502 30,700 677 Climbing Denver Center
Thu 05:25:53 PM 42.1367 -106.3683 313° West 431 496 31,400 624 Climbing Denver Center
Thu 05:26:56 PM 42.2283 -106.4972 314° West 427 491 32,000 288 Climbing Denver Center
Thu 05:27:58 PM 42.3194 -106.6269 314° West 430 495 32,000 194 Level Denver Center
Thu 05:29:00 PM 42.4028 -106.7467 313° West 444 511 32,400 435 Climbing Denver Center
Thu 05:30:02 PM 42.4828 -106.8606 314° West 438 504 32,900 532 Climbing Denver Center
Thu 05:31:04 PM 42.5725 -106.9917 313° West 433 498 33,500 532 Climbing Denver Center
Thu 05:32:06 PM 42.6542 -107.1064 314° West 431 496 34,000 242 Climbing Denver Center
Thu 05:33:08 PM 42.7400 -107.2339 313° West 425 489 34,000  Level Denver Center
Thu 05:34:10 PM 42.8197 -107.3503 313° West 435 501 34,000  Level Denver Center
Thu 05:34:55 PM 42.8856 -107.4483 313° West 438 504 34,000  Level Salt Lake Center
Thu 05:35:57 PM 42.9700 -107.5722 313° West 444 511 34,000  Level Salt Lake Center
Thu 05:36:59 PM 43.0533 -107.6956 313° West 443 510 34,000  Level Salt Lake Center
Thu 05:38:01 PM 43.1367 -107.8194 313° West 443 510 34,000 48 Level Salt Lake Center
Thu 05:39:03 PM 43.2356 -107.9681 312° West 441 507 34,100 290 Climbing Salt Lake Center
Thu 05:40:05 PM 43.3186 -108.0903 313° West 439 505 34,600 484 Climbing Salt Lake Center
Thu 05:41:07 PM 43.3989 -108.2122 312° West 432 497 35,100 532 Climbing Salt Lake Center
Thu 05:42:09 PM 43.4781 -108.3328 312° West 426 490 35,700 435 Climbing Salt Lake Center
Thu 05:43:11 PM 43.5550 -108.4492 312° West 416 479 36,000 145 Climbing Salt Lake Center
Thu 05:44:13 PM 43.6317 -108.5678 312° West 414 476 36,000  Level Salt Lake Center
Thu 05:45:15 PM 43.7275 -108.7133 312° West 423 487 36,000  Level Salt Lake Center
Thu 05:46:17 PM 43.8067 -108.8367 312° West 427 491 36,000  Level Salt Lake Center
Thu 05:47:20 PM 43.8872 -108.9597 312° West 428 493 36,000  Level Salt Lake Center
Thu 05:48:21 PM 43.9672 -109.0828 312° West 430 495 36,000  Level Salt Lake Center
Thu 05:49:23 PM 44.0475 -109.2086 312° West 433 498 36,000  Level Salt Lake Center
Thu 05:50:25 PM 44.1286 -109.3358 312° West 436 502 36,000  Level Salt Lake Center
Thu 05:51:27 PM 44.2225 -109.4814 312° West 437 503 36,000  Level Salt Lake Center
Thu 05:52:29 PM 44.2981 -109.6017 311° West 434 499 36,000  Level Salt Lake Center
Thu 05:53:31 PM 44.3886 -109.7436 312° West 436 502 36,000  Level Salt Lake Center
Thu 05:54:33 PM 44.4661 -109.8669 311° West 440 506 36,000  Level Salt Lake Center
Thu 05:55:35 PM 44.5547 -110.0111 311° West 439 505 36,000  Level Salt Lake Center
Thu 05:56:37 PM 44.6306 -110.1319 311° West 432 497 36,000  Level Salt Lake Center
Thu 05:57:39 PM 44.7183 -110.2742 311° West 432 497 36,000  Level Salt Lake Center
Thu 05:58:41 PM 44.7931 -110.3975 311° West 433 498 36,000  Level Salt Lake Center
Thu 05:59:43 PM 44.8803 -110.5400 311° West 432 497 36,000  Level Salt Lake Center
Thu 06:00:45 PM 44.9556 -110.6600 312° West 429 494 36,000  Level Salt Lake Center
Thu 06:01:47 PM 45.0417 -110.8031 310° West 430 495 36,000 48 Level Salt Lake Center
Thu 06:02:49 PM 45.1186 -110.9303 311° West 428 493 36,100  Climbing Salt Lake Center
Thu 06:03:51 PM 45.1958 -111.0597 310° West 423 487 36,000 -48 Descending Salt Lake Center
Thu 06:04:53 PM 45.2714 -111.1867 310° West 415 478 36,000  Level Salt Lake Center
Thu 06:05:55 PM 45.3525 -111.3236 310° West 413 475 36,000  Level Salt Lake Center
Thu 06:06:58 PM 45.4281 -111.4514 310° West 413 475 36,000  Level Salt Lake Center
Thu 06:08:00 PM 45.5042 -111.5800 310° West 415 478 36,000  Level Salt Lake Center
Thu 06:09:02 PM 45.5792 -111.7097 310° West 417 480 36,000  Level Salt Lake Center
Thu 06:10:04 PM 45.6544 -111.8400 310° West 417 480 36,000 -97 Level Salt Lake Center
Thu 06:11:06 PM 45.7311 -111.9694 310° West 418 481 35,800 -581 Descending Salt Lake Center
Thu 06:12:08 PM 45.8083 -112.1050 309° West 429 494 34,800 -1,016 Descending Salt Lake Center
Thu 06:13:10 PM 45.8744 -112.2772 299° West 450 518 33,700 -1,016 Descending Salt Lake Center
Thu 06:14:12 PM 45.9328 -112.4381 298° West 447 514 32,700 -1,016 Descending Salt Lake Center
Thu 06:15:14 PM 45.9897 -112.5950 298° West 437 503 31,600 -1,258 Descending Salt Lake Center
Thu 06:16:16 PM 46.0467 -112.7561 297° West 444 511 30,100 -1,790 Descending Salt Lake Center
Thu 06:17:18 PM 46.1031 -112.9181 297° West 446 513 27,900 -2,371 Descending Salt Lake Center
Thu 06:18:20 PM 46.1569 -113.0781 296° West 438 504 25,200 -2,710 Descending Salt Lake Center
Thu 06:19:22 PM 46.2158 -113.2439 297° West 422 486 22,300 -2,585 Descending Salt Lake Center
Thu 06:20:23 PM 46.2661 -113.3894 297° West 419 482 19,900 -2,488 Descending Salt Lake Center
Thu 06:21:25 PM 46.3194 -113.5472 296° West 408 470 17,200 -2,323 Descending Salt Lake Center
Thu 06:22:27 PM 46.3672 -113.6847 297° West 389 448 15,100 -1,113 Descending Salt Lake Center
Thu 06:23:29 PM 46.4089 -113.8078 296° West 319 367 14,900 -336 Descending Salt Lake Center
Thu 06:24:32 PM 46.4400 -113.8983 297° West 262 302 14,400 -1,200 Descending Salt Lake Center
Thu 06:25:34 PM 46.4747 -113.9914 298° West 247 284 12,400 -1,645 Descending Salt Lake Center
Thu 06:26:36 PM 46.5428 -114.0083 350° North 244 281 11,000 -1,403 Descending Salt Lake Center
Thu 06:27:38 PM 46.6083 -114.0250 350° North 240 276 9,500 -1,452 Descending Salt Lake Center
Thu 06:28:40 PM 46.6822 -114.0386 353° North 248 285 8,000 -1,306 Descending Salt Lake Center
Thu 06:29:42 PM 46.7494 -114.0500 353° North 246 283 6,800 -1,016 Descending Salt Lake Center
Thu 06:30:44 PM 46.8125 -114.0372 North 217 250 5,900 -1,024 Descending Salt Lake Center
Thu 06:31:45 PM 46.8583 -114.0272 North 170 196 4,700 -1,122 Descending Salt Lake Center
Thu 06:32:47 PM 46.8961 -114.0578 331° Northwest 150 173 3,600 -726 Descending Salt Lake Center
Thu 06:33:49 PM 46.9178 -114.0947 311° West 141 162 3,200 -387 Descending Salt Lake Center

Login

Don't have an account? Register now (free) for customized features, flight alerts, and more!